Time,TemperatureF,DewpointF,PressureIn,WindDirection,WindDirectionDegrees,WindSpeedMPH,WindSpeedGustMPH,Humidity,HourlyPrecipIn,Conditions,Clouds,dailyrainin,SoftwareType,DateUTC
2016-12-04 00:00:00,27.0,-99.9,-100.00,ESE,112,2.0,4.0,-999,-99.99,,,-99.99,,2016-12-04 07:00:00,
2016-12-04 00:39:00,27.0,-99.9,-100.00,ESE,112,2.0,4.0,-999,-99.99,,,-99.99,,2016-12-04 07:39:00,
2016-12-04 00:51:00,27.0,-99.9,-100.00,ESE,112,2.0,4.0,-999,-99.99,,,-99.99,,2016-12-04 07:51:00,
2016-12-04 01:00:00,25.0,-99.9,-100.00,North,-9999,0.0,3.0,-999,-99.99,,,-99.99,,2016-12-04 08:00:00,
2016-12-04 01:41:00,25.0,-99.9,-100.00,North,-9999,0.0,3.0,-999,-99.99,,,-99.99,,2016-12-04 08:41:00,
2016-12-04 01:51:00,25.0,-99.9,-100.00,North,-9999,0.0,3.0,-999,-99.99,,,-99.99,,2016-12-04 08:51:00,
2016-12-04 01:57:00,25.0,-99.9,-100.00,North,-9999,0.0,3.0,-999,-99.99,,,-99.99,,2016-12-04 08:57:00,
2016-12-04 02:00:00,25.0,-99.9,-100.00,East,80,2.0,11.0,-999,-99.99,,,-99.99,,2016-12-04 09:00:00,
2016-12-04 02:34:00,25.0,-99.9,-100.00,East,80,2.0,11.0,-999,-99.99,,,-99.99,,2016-12-04 09:34:00,
2016-12-04 02:44:00,25.0,-99.9,-100.00,East,80,2.0,11.0,-999,-99.99,,,-99.99,,2016-12-04 09:44:00,
2016-12-04 02:57:00,25.0,-99.9,-100.00,East,80,2.0,11.0,-999,-99.99,,,-99.99,,2016-12-04 09:57:00,
2016-12-04 03:00:00,23.0,-99.9,-100.00,North,-9999,0.0,10.0,-999,-99.99,,,-99.99,,2016-12-04 10:00:00,
2016-12-04 03:34:00,23.0,-99.9,-100.00,North,-9999,0.0,10.0,-999,-99.99,,,-99.99,,2016-12-04 10:34:00,
2016-12-04 03:44:00,23.0,-99.9,-100.00,North,-9999,0.0,10.0,-999,-99.99,,,-99.99,,2016-12-04 10:44:00,
2016-12-04 03:54:00,23.0,-99.9,-100.00,North,-9999,0.0,10.0,-999,-99.99,,,-99.99,,2016-12-04 10:54:00,
2016-12-04 04:00:00,23.0,-99.9,-100.00,NNE,19,2.0,3.0,-999,-99.99,,,-99.99,,2016-12-04 11:00:00,
2016-12-04 04:34:00,23.0,-99.9,-100.00,NNE,19,2.0,3.0,-999,-99.99,,,-99.99,,2016-12-04 11:34:00,
2016-12-04 04:44:00,23.0,-99.9,-100.00,NNE,19,2.0,3.0,-999,-99.99,,,-99.99,,2016-12-04 11:44:00,
2016-12-04 04:59:00,23.0,-99.9,-100.00,NNE,19,2.0,3.0,-999,-99.99,,,-99.99,,2016-12-04 11:59:00,
2016-12-04 06:25:00,22.0,-99.9,-100.00,SE,145,1.0,1.0,-999,-99.99,,,-99.99,,2016-12-04 13:25:00,
2016-12-04 06:38:00,23.0,-99.9,-100.00,North,-9999,0.0,5.0,-999,-99.99,,,-99.99,,2016-12-04 13:38:00,
2016-12-04 06:49:00,23.0,-99.9,-100.00,North,-9999,0.0,5.0,-999,-99.99,,,-99.99,,2016-12-04 13:49:00,
2016-12-04 06:58:00,23.0,-99.9,-100.00,North,-9999,0.0,5.0,-999,-99.99,,,-99.99,,2016-12-04 13:58:00,
2016-12-04 07:00:00,22.0,-99.9,-100.00,North,-9999,0.0,1.0,-999,-99.99,,,-99.99,,2016-12-04 14:00:00,
2016-12-04 07:06:00,22.0,-99.9,-100.00,SE,145,1.0,1.0,-999,-99.99,,,-99.99,,2016-12-04 14:06:00,
2016-12-04 07:15:00,22.0,-99.9,-100.00,SE,145,1.0,1.0,-999,-99.99,,,-99.99,,2016-12-04 14:15:00,
2016-12-04 07:37:00,22.0,-99.9,-100.00,North,-9999,0.0,1.0,-999,-99.99,,,-99.99,,2016-12-04 14:37:00,
2016-12-04 07:49:00,22.0,-99.9,-100.00,North,-9999,0.0,1.0,-999,-99.99,,,-99.99,,2016-12-04 14:49:00,
2016-12-04 07:58:00,22.0,-99.9,-100.00,North,-9999,0.0,1.0,-999,-99.99,,,-99.99,,2016-12-04 14:58:00,
2016-12-04 08:00:00,23.0,-99.9,-100.00,North,-9999,0.0,6.0,-999,-99.99,,,-99.99,,2016-12-04 15:00:00,
2016-12-04 08:34:00,23.0,-99.9,-100.00,North,-9999,0.0,6.0,-999,-99.99,,,-99.99,,2016-12-04 15:34:00,
2016-12-04 08:44:00,23.0,-99.9,-100.00,North,-9999,0.0,6.0,-999,-99.99,,,-99.99,,2016-12-04 15:44:00,
2016-12-04 08:54:00,23.0,-99.9,-100.00,North,-9999,0.0,6.0,-999,-99.99,,,-99.99,,2016-12-04 15:54:00,
2016-12-04 09:00:00,29.0,-99.9,-100.00,North,-9999,0.0,7.0,-999,-99.99,,,-99.99,,2016-12-04 16:00:00,
2016-12-04 09:24:00,25.0,-99.9,-100.00,North,-9999,0.0,1.0,-999,-99.99,,,-99.99,,2016-12-04 16:24:00,
2016-12-04 09:34:00,29.0,-99.9,-100.00,North,-9999,0.0,7.0,-999,-99.99,,,-99.99,,2016-12-04 16:34:00,
2016-12-04 09:47:00,29.0,-99.9,-100.00,North,-9999,0.0,7.0,-999,-99.99,,,-99.99,,2016-12-04 16:47:00,
2016-12-04 10:00:00,37.0,-99.9,-100.00,NNE,22,1.0,3.0,-999,-99.99,,,-99.99,,2016-12-04 17:00:00,
2016-12-04 10:36:00,37.0,-99.9,-100.00,NNE,22,1.0,-999.0,-999,-99.99,,,-99.99,,2016-12-04 17:36:00,
2016-12-04 10:44:00,37.0,-99.9,-100.00,NNE,22,1.0,3.0,-999,-99.99,,,-99.99,,2016-12-04 17:44:00,
2016-12-04 11:00:00,37.0,-99.9,-100.00,NW,309,4.0,6.0,-999,-99.99,,,-99.99,,2016-12-04 18:00:00,
2016-12-04 11:39:00,37.0,-99.9,-100.00,NW,309,4.0,6.0,-999,-99.99,,,-99.99,,2016-12-04 18:39:00,
2016-12-04 11:48:00,37.0,-99.9,-100.00,NW,309,4.0,6.0,-999,-99.99,,,-99.99,,2016-12-04 18:48:00,
2016-12-04 12:00:00,42.0,-99.9,-100.00,NW,325,4.0,8.0,-999,-99.99,,,-99.99,,2016-12-04 19:00:00,
2016-12-04 12:41:00,42.0,-99.9,-100.00,NW,325,4.0,-999.0,-999,-99.99,,,-99.99,,2016-12-04 19:41:00,
2016-12-04 12:49:00,42.0,-99.9,-100.00,NW,325,4.0,8.0,-999,-99.99,,,-99.99,,2016-12-04 19:49:00,
2016-12-04 13:00:00,42.0,-99.9,-100.00,NW,312,2.0,7.0,-999,-99.99,,,-99.99,,2016-12-04 20:00:00,
2016-12-04 13:40:00,42.0,-99.9,-100.00,NW,312,2.0,7.0,-999,-99.99,,,-99.99,,2016-12-04 20:40:00,
2016-12-04 13:48:00,42.0,-99.9,-100.00,NW,312,2.0,7.0,-999,-99.99,,,-99.99,,2016-12-04 20:48:00,
2016-12-04 13:59:00,42.0,-99.9,-100.00,NW,312,2.0,7.0,-999,-99.99,,,-99.99,,2016-12-04 20:59:00,
2016-12-04 14:00:00,46.0,-99.9,-100.00,NW,315,1.0,3.0,-999,-99.99,,,-99.99,,2016-12-04 21:00:00,
2016-12-04 14:34:00,46.0,-99.9,-100.00,NW,315,1.0,3.0,-999,-99.99,,,-99.99,,2016-12-04 21:34:00,
2016-12-04 14:44:00,46.0,-99.9,-100.00,NW,315,1.0,3.0,-999,-99.99,,,-99.99,,2016-12-04 21:44:00,
2016-12-04 14:54:00,46.0,-99.9,-100.00,NW,315,1.0,3.0,-999,-99.99,,,-99.99,,2016-12-04 21:54:00,
2016-12-04 15:00:00,42.0,-99.9,-100.00,North,-9999,0.0,5.0,-999,-99.99,,,-99.99,,2016-12-04 22:00:00,
2016-12-04 15:34:00,42.0,-99.9,-100.00,North,-9999,0.0,5.0,-999,-99.99,,,-99.99,,2016-12-04 22:34:00,
2016-12-04 16:00:00,41.0,-99.9,-100.00,NNE,28,4.0,7.0,-999,-99.99,,,-99.99,,2016-12-04 23:00:00,
2016-12-04 16:44:00,41.0,-99.9,-100.00,NNE,28,4.0,7.0,-999,-99.99,,,-99.99,,2016-12-04 23:44:00,
2016-12-04 16:58:00,41.0,-99.9,-100.00,NNE,28,4.0,7.0,-999,-99.99,,,-99.99,,2016-12-04 23:58:00,
2016-12-04 17:00:00,39.0,-99.9,-100.00,North,359,1.0,7.0,-999,-99.99,,,-99.99,,2016-12-05 00:00:00,
2016-12-04 17:39:00,39.0,-99.9,-100.00,North,359,1.0,7.0,-999,-99.99,,,-99.99,,2016-12-05 00:39:00,
2016-12-04 17:47:00,39.0,-99.9,-100.00,North,359,1.0,7.0,-999,-99.99,,,-99.99,,2016-12-05 00:47:00,
2016-12-04 18:00:00,39.0,-99.9,-100.00,North,-9999,0.0,11.0,-999,-99.99,,,-99.99,,2016-12-05 01:00:00,
2016-12-04 18:37:00,39.0,-99.9,-100.00,North,-9999,0.0,11.0,-999,-99.99,,,-99.99,,2016-12-05 01:37:00,
2016-12-04 18:48:00,39.0,-99.9,-100.00,North,-9999,0.0,11.0,-999,-99.99,,,-99.99,,2016-12-05 01:48:00,
2016-12-04 18:58:00,39.0,-99.9,-100.00,North,-9999,0.0,11.0,-999,-99.99,,,-99.99,,2016-12-05 01:58:00,
2016-12-04 19:36:00,39.0,-99.9,-100.00,NNE,23,2.0,6.0,-999,-99.99,,,-99.99,,2016-12-05 02:36:00,
2016-12-04 19:49:00,39.0,-99.9,-100.00,NNE,23,2.0,-999.0,-999,-99.99,,,-99.99,,2016-12-05 02:49:00,
2016-12-04 19:57:00,39.0,-99.9,-100.00,NNE,23,2.0,6.0,-999,-99.99,,,-99.99,,2016-12-05 02:57:00,